Time;durP1;ratioP1;P1;durP2;ratioP2;P2;SDS_P1;SDS_P2;PMS_P1;PMS_P2;Temp;Humidity;BMP_temperature;BMP_pressure;BME280_temperature;BME280_humidity;BME280_pressure;Samples;Min_cycle;Max_cycle;Signal;HPM_P1;HPM_P2
2023/08/26 00:00:40;;;;;;;5.22;1.98;;;;;;;20.34;100.00;100143.59;5078647;28;20049;-65
2023/08/26 00:05:59;;;;;;;3.45;2.03;;;;;;;20.38;100.00;100144.94;5090287;28;20080;-66
2023/08/26 00:08:26;;;;;;;5.15;2.20;;;;;;;20.41;100.00;100136.59;5091757;28;20443;-63
2023/08/26 00:10:54;;;;;;;2.50;1.88;;;;;;;20.43;100.00;100123.91;5057935;28;20075;-66
2023/08/26 00:13:21;;;;;;;2.83;2.13;;;;;;;20.43;100.00;100125.72;5077604;28;20052;-65
2023/08/26 00:15:48;;;;;;;4.93;2.50;;;;;;;20.41;100.00;100120.56;5086036;28;20071;-64
2023/08/26 00:19:06;;;;;;;2.97;2.30;;;;;;;20.39;100.00;100108.34;5084586;28;20075;-65
2023/08/26 00:22:00;;;;;;;3.28;2.13;;;;;;;20.38;100.00;100114.72;5083809;28;20572;-65
2023/08/26 00:24:27;;;;;;;5.00;2.08;;;;;;;20.39;100.00;100122.56;5084273;28;20078;-61
2023/08/26 00:26:55;;;;;;;3.45;2.33;;;;;;;20.36;100.00;100122.91;5069947;28;20098;-62
2023/08/26 00:29:22;;;;;;;3.67;2.22;;;;;;;20.34;100.00;100126.72;5083974;28;20087;-66
2023/08/26 00:31:49;;;;;;;4.55;2.30;;;;;;;20.33;100.00;100122.41;5068925;28;20703;-62
2023/08/26 00:34:17;;;;;;;5.43;2.92;;;;;;;20.33;100.00;100120.56;5087700;28;20575;-66
2023/08/26 00:36:44;;;;;;;4.70;2.17;;;;;;;20.34;100.00;100119.53;5084552;28;20074;-65
2023/08/26 00:39:11;;;;;;;3.55;2.40;;;;;;;20.34;100.00;100118.72;5085493;28;20133;-66
2023/08/26 00:41:38;;;;;;;6.65;2.47;;;;;;;20.35;100.00;100118.53;5072425;28;20641;-63
2023/08/26 00:44:06;;;;;;;2.22;1.92;;;;;;;20.32;100.00;100110.03;5070576;28;20072;-66
2023/08/26 00:46:34;;;;;;;4.53;2.40;;;;;;;20.31;100.00;100109.22;5085606;28;20052;-66
2023/08/26 00:49:01;;;;;;;8.00;2.53;;;;;;;20.32;100.00;100110.88;5079459;28;20052;-65
2023/08/26 00:51:29;;;;;;;2.47;2.28;;;;;;;20.31;100.00;100111.00;5091801;28;20193;-65
2023/08/26 00:53:56;;;;;;;3.15;2.10;;;;;;;20.29;100.00;100110.34;5061683;28;20056;-67
2023/08/26 00:56:23;;;;;;;4.25;2.70;;;;;;;20.23;100.00;100118.03;5090494;28;20075;-65
2023/08/26 00:58:51;;;;;;;3.25;2.45;;;;;;;20.19;100.00;100114.03;5090566;28;20048;-66
2023/08/26 01:01:18;;;;;;;7.05;2.50;;;;;;;20.17;100.00;100116.03;5098298;22;20090;-65
2023/08/26 01:03:46;;;;;;;5.85;2.67;;;;;;;20.19;100.00;100116.69;5078703;28;20135;-66
2023/08/26 01:06:13;;;;;;;4.55;2.55;;;;;;;20.17;100.00;100105.34;5100606;28;20044;-64
2023/08/26 01:08:41;;;;;;;3.42;2.25;;;;;;;20.16;100.00;100111.66;5085474;28;20067;-65
2023/08/26 01:11:35;;;;;;;3.47;2.00;;;;;;;20.14;100.00;100113.69;5063347;28;20071;-65
2023/08/26 01:14:12;;;;;;;5.18;2.72;;;;;;;20.15;100.00;100107.34;5069192;28;20056;-65
2023/08/26 01:16:42;;;;;;;3.42;2.20;;;;;;;20.12;100.00;100099.63;5055417;28;20110;-65
2023/08/26 01:19:17;;;;;;;5.65;3.22;;;;;;;20.10;100.00;100100.81;5076510;28;20135;-65
2023/08/26 01:21:47;;;;;;;2.58;2.00;;;;;;;20.10;100.00;100095.47;5054390;28;20056;-64
2023/08/26 01:24:15;;;;;;;5.35;2.00;;;;;;;20.07;100.00;100101.13;5053179;28;20076;-65
2023/08/26 01:26:42;;;;;;;3.38;2.17;;;;;;;20.09;100.00;100104.50;5068903;28;20463;-64
2023/08/26 01:29:09;;;;;;;7.05;2.40;;;;;;;20.09;100.00;100113.34;5047131;28;20086;-64
2023/08/26 01:31:37;;;;;;;3.08;2.05;;;;;;;20.08;100.00;100113.50;5062821;28;20055;-64
2023/08/26 01:34:10;;;;;;;8.18;2.88;;;;;;;20.07;100.00;100112.66;5044660;28;20076;-65
2023/08/26 01:36:42;;;;;;;6.40;2.33;;;;;;;20.05;100.00;100109.34;5069749;28;20631;-64
2023/08/26 01:39:15;;;;;;;3.13;2.03;;;;;;;20.05;100.00;100112.00;5056315;28;20546;-65
2023/08/26 01:41:52;;;;;;;2.55;2.35;;;;;;;20.04;100.00;100113.00;5059586;28;20088;-64
2023/08/26 01:44:20;;;;;;;3.97;2.17;;;;;;;20.06;100.00;100105.66;5069614;28;20119;-65
2023/08/26 01:46:47;;;;;;;4.88;2.22;;;;;;;20.05;100.00;100103.97;5056453;28;20076;-65
2023/08/26 01:49:15;;;;;;;4.40;2.40;;;;;;;20.04;100.00;100098.78;5053629;28;20075;-65
2023/08/26 01:51:42;;;;;;;2.67;1.88;;;;;;;20.00;100.00;100100.16;5072219;28;20485;-64
2023/08/26 01:54:09;;;;;;;3.33;2.30;;;;;;;20.01;100.00;100099.13;5076494;28;20200;-65
2023/08/26 01:56:36;;;;;;;4.40;2.60;;;;;;;20.02;100.00;100096.28;5065903;28;20518;-65
2023/08/26 01:59:04;;;;;;;3.83;2.45;;;;;;;20.02;100.00;100098.13;5073074;28;20123;-65
2023/08/26 02:01:33;;;;;;;5.75;2.60;;;;;;;20.03;100.00;100091.78;5068014;28;20628;-65
2023/08/26 02:04:01;;;;;;;3.25;2.40;;;;;;;20.05;100.00;100090.63;5070342;28;20122;-65
2023/08/26 02:06:28;;;;;;;4.00;2.10;;;;;;;20.06;100.00;100086.13;5066198;28;20051;-65
2023/08/26 02:08:55;;;;;;;5.03;3.03;;;;;;;20.05;100.00;100087.94;5073949;28;20067;-65
2023/08/26 02:11:22;;;;;;;7.13;2.80;;;;;;;20.06;100.00;100086.13;5072289;28;20127;-65
2023/08/26 02:13:50;;;;;;;5.30;2.65;;;;;;;20.02;100.00;100082.94;5061411;28;20147;-66
2023/08/26 02:16:18;;;;;;;4.10;2.60;;;;;;;20.01;100.00;100091.13;5067517;28;20044;-65
2023/08/26 02:18:45;;;;;;;7.82;3.13;;;;;;;19.96;100.00;100086.25;5089229;28;20071;-65
2023/08/26 02:21:12;;;;;;;4.43;1.85;;;;;;;19.94;100.00;100082.91;5089629;28;20176;-65
2023/08/26 02:23:40;;;;;;;7.80;2.40;;;;;;;19.89;100.00;100079.91;5078315;28;20064;-64
2023/08/26 02:26:07;;;;;;;7.35;2.65;;;;;;;19.86;100.00;100067.72;5073211;28;20464;-65
2023/08/26 02:28:34;;;;;;;4.88;2.50;;;;;;;19.85;100.00;100070.53;5066534;28;20055;-64
2023/08/26 02:31:05;;;;;;;5.25;2.97;;;;;;;19.85;100.00;100060.69;5072641;28;20080;-65
2023/08/26 02:33:32;;;;;;;3.92;2.00;;;;;;;19.86;100.00;100064.22;5068364;28;20055;-65
2023/08/26 02:35:59;;;;;;;4.43;2.20;;;;;;;19.84;100.00;100064.34;5056043;28;20068;-66
2023/08/26 02:38:27;;;;;;;5.07;2.45;;;;;;;19.84;100.00;100064.34;5073287;28;20124;-66
2023/08/26 02:40:58;;;;;;;2.70;2.08;;;;;;;19.84;100.00;100061.69;5072076;28;20053;-66
2023/08/26 02:43:25;;;;;;;6.00;2.47;;;;;;;19.84;100.00;100050.16;5075494;28;20076;-65
2023/08/26 02:45:53;;;;;;;2.90;2.13;;;;;;;19.83;100.00;100043.16;5073176;28;20491;-65
2023/08/26 02:48:22;;;;;;;6.82;2.25;;;;;;;19.84;100.00;100034.97;5067712;28;20466;-65
2023/08/26 02:50:57;;;;;;;6.82;2.50;;;;;;;19.84;100.00;100042.16;5069970;28;20410;-65
2023/08/26 02:53:25;;;;;;;4.95;2.28;;;;;;;19.79;100.00;100034.63;5053940;28;20104;-65
2023/08/26 02:55:53;;;;;;;4.88;2.22;;;;;;;19.79;100.00;100031.97;5072838;28;20159;-65
2023/08/26 02:58:21;;;;;;;7.25;2.42;;;;;;;19.77;100.00;100028.63;5069868;28;20053;-64
2023/08/26 03:00:48;;;;;;;5.25;2.35;;;;;;;19.78;100.00;100026.81;5072946;28;20072;-64
2023/08/26 03:03:16;;;;;;;3.65;2.13;;;;;;;19.76;100.00;100029.63;5053510;28;20052;-65
2023/08/26 03:05:43;;;;;;;5.78;2.65;;;;;;;19.77;100.00;100027.78;5048302;28;20135;-65
2023/08/26 03:08:10;;;;;;;4.45;2.30;;;;;;;19.77;100.00;100025.97;5072435;28;20139;-65
2023/08/26 03:10:38;;;;;;;4.03;2.55;;;;;;;19.77;100.00;100031.31;5065216;28;20162;-65
2023/08/26 03:13:10;;;;;;;4.45;2.60;;;;;;;19.76;100.00;100020.78;5049681;28;20049;-65
2023/08/26 03:15:37;;;;;;;11.35;3.78;;;;;;;19.72;100.00;100033.59;5074706;28;20076;-65
2023/08/26 03:18:04;;;;;;;6.45;2.75;;;;;;;19.71;100.00;100035.44;5061857;28;20064;-65
2023/08/26 03:20:32;;;;;;;7.10;2.85;;;;;;;19.71;100.00;100043.47;5075913;28;20052;-66
2023/08/26 03:22:59;;;;;;;4.93;2.55;;;;;;;19.72;100.00;100057.66;5069594;28;20083;-65
2023/08/26 03:25:26;;;;;;;8.95;3.17;;;;;;;19.70;100.00;100062.31;5076853;28;20067;-65
2023/08/26 03:27:53;;;;;;;5.20;2.60;;;;;;;19.64;100.00;100068.34;5065165;28;20144;-65
2023/08/26 03:30:22;;;;;;;9.77;3.20;;;;;;;19.61;100.00;100060.63;5073699;28;20071;-66
2023/08/26 03:32:49;;;;;;;4.85;2.90;;;;;;;19.61;100.00;100079.31;5074298;28;20121;-66
2023/08/26 03:35:16;;;;;;;6.45;2.72;;;;;;;19.57;100.00;100085.94;5069159;28;20080;-66
2023/08/26 03:37:44;;;;;;;5.50;2.50;;;;;;;19.55;100.00;100075.44;5075475;28;20480;-66
2023/08/26 03:40:11;;;;;;;7.45;2.75;;;;;;;19.54;100.00;100071.06;5079603;28;20132;-66
2023/08/26 03:42:39;;;;;;;4.78;3.15;;;;;;;19.53;100.00;100057.91;5076598;28;20090;-67
2023/08/26 03:45:07;;;;;;;7.50;3.40;;;;;;;19.54;100.00;100055.06;5070747;28;20107;-66
2023/08/26 03:47:34;;;;;;;9.95;3.10;;;;;;;19.53;100.00;100033.88;5070141;28;20436;-66
2023/08/26 03:50:02;;;;;;;7.90;2.97;;;;;;;19.52;100.00;100035.72;5058480;28;20462;-67
2023/08/26 03:52:29;;;;;;;4.03;2.75;;;;;;;19.53;100.00;100044.56;5070876;28;20135;-67
2023/08/26 03:54:57;;;;;;;5.13;3.05;;;;;;;19.53;100.00;100052.56;5074729;28;20066;-67
2023/08/26 03:57:24;;;;;;;3.63;2.45;;;;;;;19.53;100.00;100048.06;5080528;28;20197;-67
2023/08/26 03:59:52;;;;;;;6.82;2.63;;;;;;;19.52;100.00;100051.72;5080152;28;20059;-67
2023/08/26 04:02:19;;;;;;;5.07;3.22;;;;;;;19.53;100.00;100065.91;5071203;28;20511;-67
2023/08/26 04:04:47;;;;;;;6.10;3.08;;;;;;;19.50;100.00;100064.41;5075855;28;20135;-67
2023/08/26 04:07:14;;;;;;;7.63;3.17;;;;;;;19.45;100.00;100056.91;5073847;28;20044;-66
2023/08/26 04:09:42;;;;;;;7.78;3.22;;;;;;;19.47;100.00;100059.38;5069577;28;20058;-66
2023/08/26 04:12:09;;;;;;;7.03;3.25;;;;;;;19.48;100.00;100056.56;5068192;28;20076;-66
2023/08/26 04:14:36;;;;;;;6.97;3.45;;;;;;;19.44;100.00;100049.84;5074918;28;20671;-66
2023/08/26 04:17:04;;;;;;;9.35;3.00;;;;;;;19.41;100.00;100047.53;5069094;28;20496;-67
2023/08/26 04:19:32;;;;;;;7.45;3.45;;;;;;;19.41;100.00;100058.22;5078018;28;20084;-66
2023/08/26 04:22:01;;;;;;;4.68;3.13;;;;;;;19.38;100.00;100041.69;5078193;28;20098;-67
2023/08/26 04:24:28;;;;;;;8.00;3.85;;;;;;;19.39;100.00;100043.34;5073086;28;20135;-66
2023/08/26 04:26:55;;;;;;;5.38;2.92;;;;;;;19.40;100.00;100048.50;5073139;28;20144;-67
2023/08/26 04:29:23;;;;;;;6.75;2.78;;;;;;;19.38;100.00;100031.00;5074892;28;20082;-67
2023/08/26 04:31:50;;;;;;;6.63;3.47;;;;;;;19.37;100.00;100035.50;5071278;28;20047;-67
2023/08/26 04:34:18;;;;;;;7.85;3.17;;;;;;;19.34;100.00;100034.97;5050474;28;20136;-67
2023/08/26 04:36:45;;;;;;;4.47;3.35;;;;;;;19.32;100.00;100039.63;5072662;28;20086;-67
2023/08/26 04:39:12;;;;;;;6.68;3.00;;;;;;;19.28;100.00;100043.66;5071960;28;20044;-66
2023/08/26 04:41:40;;;;;;;7.68;3.80;;;;;;;19.23;100.00;100060.97;5075285;28;20564;-66
2023/08/26 04:44:12;;;;;;;8.65;3.85;;;;;;;19.16;100.00;100062.59;5073238;28;20127;-66
2023/08/26 04:46:42;;;;;;;7.13;3.25;;;;;;;19.17;100.00;100071.44;5076056;28;20075;-66
2023/08/26 04:49:09;;;;;;;6.70;3.42;;;;;;;19.16;100.00;100081.28;5064233;28;20534;-66
2023/08/26 04:51:37;;;;;;;4.90;3.63;;;;;;;19.14;100.00;100085.13;5072487;28;20084;-66
2023/08/26 04:54:06;;;;;;;6.53;4.07;;;;;;;19.15;100.00;100092.94;5080220;28;20064;-66
2023/08/26 04:56:33;;;;;;;17.13;5.20;;;;;;;19.11;100.00;100091.59;5072165;28;20074;-66
2023/08/26 04:59:00;;;;;;;9.10;3.65;;;;;;;19.11;100.00;100090.75;5078131;28;20147;-66
2023/08/26 05:01:27;;;;;;;7.78;4.38;;;;;;;19.06;100.00;100083.22;5075952;28;20131;-66
2023/08/26 05:03:55;;;;;;;11.45;4.13;;;;;;;19.06;100.00;100085.91;5076200;28;20143;-66
2023/08/26 05:06:22;;;;;;;8.52;4.10;;;;;;;19.12;100.00;100095.09;5067661;28;20091;-66
2023/08/26 05:08:49;;;;;;;6.45;4.18;;;;;;;19.15;100.00;100090.28;5069276;28;20134;-66
2023/08/26 05:11:16;;;;;;;4.85;3.38;;;;;;;19.20;100.00;100090.63;5068669;28;20048;-66
2023/08/26 05:13:44;;;;;;;9.15;3.75;;;;;;;19.21;100.00;100084.28;5075086;28;20112;-66
2023/08/26 05:16:11;;;;;;;11.98;3.90;;;;;;;19.21;100.00;100076.28;5069222;28;20128;-67
2023/08/26 05:18:38;;;;;;;8.02;4.20;;;;;;;19.29;100.00;100070.16;5071052;28;20901;-66
2023/08/26 05:21:05;;;;;;;6.78;3.67;;;;;;;19.35;100.00;100080.19;5077391;28;20048;-66
2023/08/26 05:23:33;;;;;;;10.15;4.20;;;;;;;19.39;100.00;100088.72;5070346;28;20079;-67
2023/08/26 05:26:00;;;;;;;5.13;3.85;;;;;;;19.42;100.00;100091.06;5074563;28;20114;-66
2023/08/26 05:28:27;;;;;;;8.35;4.15;;;;;;;19.34;100.00;100088.38;5078646;28;20113;-65
2023/08/26 05:30:54;;;;;;;6.57;3.95;;;;;;;19.37;100.00;100096.91;5065663;28;20135;-67
2023/08/26 05:33:22;;;;;;;6.55;3.90;;;;;;;19.41;100.00;100098.25;5070336;28;20151;-66
2023/08/26 05:35:49;;;;;;;4.68;4.15;;;;;;;19.42;100.00;100107.09;5067473;28;20090;-67
2023/08/26 05:38:16;;;;;;;8.25;3.75;;;;;;;19.44;100.00;100111.25;5081798;28;20084;-65
2023/08/26 05:40:43;;;;;;;5.55;3.33;;;;;;;19.50;100.00;100115.16;5081011;28;20072;-65
2023/08/26 05:43:11;;;;;;;11.63;3.55;;;;;;;19.58;100.00;100133.84;5075186;28;20199;-66
2023/08/26 05:45:38;;;;;;;5.47;3.22;;;;;;;19.64;100.00;100151.09;5073675;28;20730;-65
2023/08/26 05:48:05;;;;;;;6.78;3.67;;;;;;;19.67;100.00;100150.75;5069423;28;20595;-66
2023/08/26 05:50:33;;;;;;;7.60;3.65;;;;;;;19.70;100.00;100134.44;5075116;28;20924;-65
2023/08/26 05:53:00;;;;;;;7.05;4.50;;;;;;;19.67;100.00;100138.25;5072958;28;21387;-65
2023/08/26 05:55:27;;;;;;;7.82;4.05;;;;;;;19.72;100.00;100146.66;5079776;28;20127;-65
2023/08/26 05:57:54;;;;;;;7.30;3.97;;;;;;;19.85;100.00;100145.31;5070036;28;20044;-65
2023/08/26 06:00:25;;;;;;;8.30;4.47;;;;;;;19.92;100.00;100152.53;5067574;28;20092;-64
2023/08/26 06:02:53;;;;;;;7.97;3.95;;;;;;;19.99;100.00;100150.03;5025909;28;20048;-65
2023/08/26 06:05:22;;;;;;;8.20;4.05;;;;;;;20.05;100.00;100157.44;5073701;28;20072;-65
2023/08/26 06:07:51;;;;;;;7.03;3.47;;;;;;;20.10;100.00;100160.44;5072163;28;20529;-64
2023/08/26 06:10:18;;;;;;;8.93;4.10;;;;;;;20.18;100.00;100168.47;5049946;28;20108;-64
2023/08/26 06:12:46;;;;;;;8.23;4.60;;;;;;;20.18;100.00;100178.34;5075464;28;20083;-65
2023/08/26 06:15:14;;;;;;;6.03;3.78;;;;;;;20.19;100.00;100185.34;5053211;28;20737;-66
2023/08/26 06:17:41;;;;;;;13.35;4.50;;;;;;;20.17;100.00;100188.19;5034598;28;20099;-67
2023/08/26 06:20:18;;;;;;;7.20;4.30;;;;;;;20.11;100.00;100182.66;5070036;28;20105;-65
2023/08/26 06:22:45;;;;;;;8.05;5.07;;;;;;;19.92;100.00;100181.94;5053820;28;20044;-65
2023/08/26 06:25:13;;;;;;;10.70;5.03;;;;;;;19.87;100.00;100186.91;5069422;28;20072;-64
2023/08/26 06:27:41;;;;;;;10.50;5.28;;;;;;;19.85;100.00;100178.22;5073187;28;20049;-64
2023/08/26 06:30:09;;;;;;;9.95;4.57;;;;;;;19.86;100.00;100163.06;5067200;28;20503;-64
2023/08/26 06:32:36;;;;;;;9.80;4.80;;;;;;;19.91;100.00;100156.22;5050031;28;20095;-63
2023/08/26 06:35:04;;;;;;;8.05;4.15;;;;;;;19.98;100.00;100151.88;5049054;28;20131;-64
2023/08/26 06:37:31;;;;;;;10.85;4.68;;;;;;;20.08;100.00;100150.91;5065540;28;20139;-64
2023/08/26 06:39:59;;;;;;;8.55;4.45;;;;;;;20.15;100.00;100152.75;5076277;28;20508;-65
2023/08/26 06:42:26;;;;;;;6.55;4.00;;;;;;;20.25;100.00;100160.63;5071579;28;20449;-64
2023/08/26 06:44:54;;;;;;;10.77;4.32;;;;;;;20.31;100.00;100169.81;5071096;28;20147;-64
2023/08/26 06:47:21;;;;;;;5.38;3.85;;;;;;;20.35;100.00;100165.81;5033827;28;20143;-65
2023/08/26 06:49:49;;;;;;;5.57;3.85;;;;;;;20.42;100.00;100174.88;5063504;28;20536;-65
2023/08/26 06:52:16;;;;;;;8.07;4.65;;;;;;;20.48;100.00;100187.59;5070131;28;20118;-66
2023/08/26 06:54:43;;;;;;;6.68;4.70;;;;;;;20.46;100.00;100193.09;5066173;28;20139;-65
2023/08/26 06:57:10;;;;;;;8.85;4.50;;;;;;;20.45;100.00;100196.78;5064533;28;20131;-65
2023/08/26 06:59:38;;;;;;;8.60;4.80;;;;;;;20.41;100.00;100200.78;5049982;28;20071;-65
2023/08/26 07:02:05;;;;;;;7.65;4.82;;;;;;;20.45;100.00;100193.28;5052807;28;20082;-64
2023/08/26 07:04:33;;;;;;;6.40;4.25;;;;;;;20.51;100.00;100192.63;5066156;28;20049;-65
2023/08/26 07:07:01;;;;;;;7.30;4.50;;;;;;;20.51;100.00;100197.97;5060545;28;20151;-65
2023/08/26 07:09:28;;;;;;;7.63;5.20;;;;;;;20.56;100.00;100192.97;5082165;28;20076;-65
2023/08/26 07:11:55;;;;;;;10.65;5.78;;;;;;;20.65;100.00;100200.00;5075982;28;20460;-65
2023/08/26 07:14:24;;;;;;;6.18;4.47;;;;;;;20.72;100.00;100209.03;5071653;28;20094;-65
2023/08/26 07:16:51;;;;;;;9.10;5.05;;;;;;;20.69;100.00;100222.72;5070924;28;20532;-64
2023/08/26 07:19:19;;;;;;;9.63;5.05;;;;;;;20.65;100.00;100194.66;5073951;28;20082;-65
2023/08/26 07:21:46;;;;;;;8.52;5.53;;;;;;;20.77;100.00;100203.19;5070997;28;20044;-63
2023/08/26 07:24:15;;;;;;;12.23;4.80;;;;;;;20.85;100.00;100207.69;5068757;28;20079;-64
2023/08/26 07:26:42;;;;;;;5.25;4.70;;;;;;;20.94;100.00;100199.50;5054575;28;20114;-64
2023/08/26 07:29:09;;;;;;;7.63;5.05;;;;;;;21.05;100.00;100201.00;5072964;28;20451;-65
2023/08/26 07:31:37;;;;;;;7.60;4.70;;;;;;;21.12;100.00;100217.22;5070379;28;20167;-64
2023/08/26 07:34:04;;;;;;;7.22;5.00;;;;;;;21.10;100.00;100212.03;5071968;28;20131;-65
2023/08/26 07:36:31;;;;;;;6.40;5.32;;;;;;;21.05;100.00;100216.22;5068644;28;20619;-65
2023/08/26 07:38:58;;;;;;;11.35;5.85;;;;;;;21.03;100.00;100212.88;5071994;28;20139;-65
2023/08/26 07:41:26;;;;;;;10.25;5.85;;;;;;;20.97;100.00;100219.72;5079502;28;20490;-65
2023/08/26 07:43:55;;;;;;;8.73;5.43;;;;;;;21.00;100.00;100219.41;5080077;28;20118;-65
2023/08/26 07:46:22;;;;;;;7.32;5.13;;;;;;;20.97;100.00;100238.47;5070319;28;20045;-66
2023/08/26 07:48:53;;;;;;;13.07;5.97;;;;;;;20.95;100.00;100224.44;5067347;28;20044;-66
2023/08/26 07:51:20;;;;;;;7.75;5.95;;;;;;;20.95;100.00;100233.28;5048110;28;20524;-67
2023/08/26 07:53:47;;;;;;;10.63;5.68;;;;;;;20.94;100.00;100218.25;5096884;22;20067;-65
2023/08/26 07:56:15;;;;;;;6.50;5.60;;;;;;;21.02;100.00;100225.41;5099299;28;20217;-66
2023/08/26 07:58:42;;;;;;;9.07;5.68;;;;;;;21.09;100.00;100230.94;5096838;28;20059;-65
2023/08/26 08:01:09;;;;;;;9.95;5.88;;;;;;;21.12;100.00;100233.28;5083148;28;20432;-65
2023/08/26 08:03:37;;;;;;;11.25;5.65;;;;;;;21.11;100.00;100229.75;5079629;28;20507;-65
2023/08/26 08:06:04;;;;;;;9.65;6.47;;;;;;;21.10;100.00;100230.78;5089994;28;20134;-65
2023/08/26 08:08:32;;;;;;;6.85;5.80;;;;;;;21.02;100.00;100229.94;5091631;28;20524;-64
2023/08/26 08:10:59;;;;;;;8.20;6.15;;;;;;;21.03;100.00;100228.94;5095259;28;20159;-65
2023/08/26 08:13:26;;;;;;;10.38;6.88;;;;;;;21.07;100.00;100228.41;5089789;28;20047;-65
2023/08/26 08:15:54;;;;;;;9.60;5.45;;;;;;;21.06;100.00;100231.28;5055912;28;20122;-65
2023/08/26 08:18:21;;;;;;;9.70;6.55;;;;;;;21.05;100.00;100235.78;5069534;28;20126;-65
2023/08/26 08:20:48;;;;;;;7.35;6.53;;;;;;;21.08;100.00;100240.81;5089904;28;20086;-66
2023/08/26 08:23:16;;;;;;;9.57;6.95;;;;;;;21.08;100.00;100235.47;5089695;28;20044;-65
2023/08/26 08:25:43;;;;;;;14.75;7.15;;;;;;;21.07;100.00;100233.78;5090821;28;20142;-65
2023/08/26 08:28:11;;;;;;;10.02;6.45;;;;;;;21.15;100.00;100236.44;5045036;28;20044;-66
2023/08/26 08:30:39;;;;;;;9.75;6.88;;;;;;;21.17;100.00;100233.63;5095269;28;20106;-66
2023/08/26 08:33:07;;;;;;;8.27;6.88;;;;;;;21.13;100.00;100237.66;5092839;28;20044;-65
2023/08/26 08:35:34;;;;;;;11.23;7.65;;;;;;;21.09;100.00;100237.13;5101752;27;20528;-65
2023/08/26 08:38:02;;;;;;;8.88;6.85;;;;;;;21.09;100.00;100233.63;5070937;28;20103;-65
2023/08/26 08:40:29;;;;;;;9.95;7.15;;;;;;;21.15;100.00;100239.13;5103122;28;20103;-64
2023/08/26 08:42:58;;;;;;;15.30;7.43;;;;;;;21.23;100.00;100238.31;5086867;28;20067;-67
2023/08/26 08:45:26;;;;;;;11.10;7.72;;;;;;;21.28;100.00;100235.94;5095060;28;20089;-65
2023/08/26 08:47:53;;;;;;;15.02;7.78;;;;;;;21.31;100.00;100234.78;5106135;28;20071;-63
2023/08/26 08:50:21;;;;;;;10.32;6.57;;;;;;;21.50;100.00;100226.41;5081494;28;20081;-55
2023/08/26 08:52:51;;;;;;;8.52;6.45;;;;;;;21.55;100.00;100232.09;5099671;28;20079;-64
2023/08/26 08:55:18;;;;;;;10.43;6.43;;;;;;;21.51;100.00;100238.78;5073574;28;20052;-60
2023/08/26 08:57:47;;;;;;;8.75;6.35;;;;;;;21.54;100.00;100235.78;5068404;28;20051;-64
2023/08/26 09:00:18;;;;;;;7.45;5.82;;;;;;;21.41;100.00;100238.16;5099803;28;20407;-64
2023/08/26 09:02:46;;;;;;;7.32;6.60;;;;;;;21.33;100.00;100240.81;5093007;28;20043;-64
2023/08/26 09:05:14;;;;;;;9.93;5.47;;;;;;;21.42;100.00;100224.56;5088466;28;20079;-64
2023/08/26 09:07:41;;;;;;;6.07;5.32;;;;;;;21.53;100.00;100241.31;5089580;28;20115;-65
2023/08/26 09:10:10;;;;;;;11.75;6.50;;;;;;;21.37;100.00;100231.44;5074804;28;20404;-64
2023/08/26 09:12:38;;;;;;;7.32;5.38;;;;;;;21.17;100.00;100236.31;5093652;28;20539;-64
2023/08/26 09:15:07;;;;;;;6.53;4.97;;;;;;;21.37;100.00;100226.09;5070274;28;20052;-65
2023/08/26 09:17:35;;;;;;;5.35;4.82;;;;;;;21.59;100.00;100224.53;5087712;28;20051;-69
2023/08/26 09:20:03;;;;;;;6.72;5.03;;;;;;;21.63;100.00;100225.88;5091387;28;20456;-65
2023/08/26 09:22:31;;;;;;;7.63;4.35;;;;;;;21.69;100.00;100233.22;5090213;28;20059;-64
2023/08/26 09:25:01;;;;;;;6.63;4.90;;;;;;;21.82;100.00;100236.19;5093102;28;20179;-63
2023/08/26 09:27:32;;;;;;;4.63;3.90;;;;;;;22.02;100.00;100247.34;5094770;28;20496;-66
2023/08/26 09:30:00;;;;;;;8.65;4.25;;;;;;;22.28;100.00;100235.53;5089293;28;20149;-64
2023/08/26 09:32:39;;;;;;;5.65;4.78;;;;;;;22.45;100.00;100243.31;5095284;28;20044;-63
2023/08/26 09:35:10;;;;;;;5.68;4.05;;;;;;;22.15;100.00;100247.63;5094256;28;20507;-62
2023/08/26 09:37:38;;;;;;;6.63;5.00;;;;;;;21.94;100.00;100242.84;5096641;28;20495;-64
2023/08/26 09:40:06;;;;;;;7.60;6.32;;;;;;;21.82;100.00;100246.91;5098921;28;20051;-65
2023/08/26 09:42:36;;;;;;;7.05;5.25;;;;;;;21.76;100.00;100247.59;5075540;28;21276;-66
2023/08/26 09:45:08;;;;;;;7.40;5.55;;;;;;;21.95;100.00;100235.66;5068883;28;20052;-64
2023/08/26 09:47:36;;;;;;;10.05;5.30;;;;;;;22.32;100.00;100244.88;5073897;28;20105;-65
2023/08/26 09:50:05;;;;;;;10.02;6.65;;;;;;;22.60;98.16;100254.09;5093998;28;20062;-64
2023/08/26 09:52:49;;;;;;;7.43;5.93;;;;;;;22.70;97.27;100257.41;5094455;28;20056;-64
2023/08/26 09:55:16;;;;;;;8.32;6.53;;;;;;;22.93;94.61;100251.25;5085226;28;20125;-64
2023/08/26 09:57:44;;;;;;;9.23;6.65;;;;;;;22.93;92.73;100256.63;5085619;28;20134;-64
2023/08/26 10:00:11;;;;;;;14.57;7.95;;;;;;;23.08;91.99;100259.34;5089196;28;20142;-64
2023/08/26 10:02:48;;;;;;;17.00;7.40;;;;;;;23.48;87.13;100258.13;5090384;28;20083;-63
2023/08/26 10:05:26;;;;;;;10.02;7.05;;;;;;;23.30;87.18;100260.31;5089315;28;20135;-64
2023/08/26 10:07:54;;;;;;;9.48;5.72;;;;;;;23.20;88.69;100247.16;5084894;28;20101;-63
2023/08/26 10:10:25;;;;;;;12.82;6.80;;;;;;;23.44;87.45;100241.53;5070490;28;20924;-65
2023/08/26 10:13:01;;;;;;;10.88;6.00;;;;;;;23.91;86.69;100248.47;5080003;28;20547;-61
2023/08/26 10:15:33;;;;;;;7.50;5.57;;;;;;;24.22;82.62;100247.38;5082394;28;20486;-64
2023/08/26 10:18:06;;;;;;;12.88;6.25;;;;;;;24.21;82.24;100248.41;5084480;28;20052;-57
2023/08/26 10:20:34;;;;;;;7.78;5.50;;;;;;;24.43;81.07;100257.41;5069110;28;20079;-51
2023/08/26 10:23:06;;;;;;;13.43;6.68;;;;;;;24.39;79.88;100250.75;5094913;28;20072;-51
2023/08/26 10:25:33;;;;;;;11.65;6.97;;;;;;;24.49;78.65;100257.47;5100460;28;20060;-56
2023/08/26 10:28:03;;;;;;;9.40;7.03;;;;;;;24.58;78.77;100257.34;5092843;28;21073;-52
2023/08/26 10:30:31;;;;;;;10.15;7.22;;;;;;;24.46;76.74;100265.13;5095593;28;20602;-63
2023/08/26 10:33:00;;;;;;;9.27;7.32;;;;;;;24.83;76.03;100258.66;5073518;28;20186;-63
2023/08/26 10:35:28;;;;;;;8.80;7.15;;;;;;;25.15;73.94;100249.25;5090348;28;20132;-63
2023/08/26 10:38:12;;;;;;;8.70;7.07;;;;;;;25.55;72.46;100254.94;5075536;28;20131;-62
2023/08/26 10:40:40;;;;;;;10.27;7.13;;;;;;;26.02;70.66;100258.78;5088812;28;20138;-62
2023/08/26 10:43:09;;;;;;;8.20;6.72;;;;;;;26.05;70.10;100252.16;5065613;28;20134;-64
2023/08/26 10:45:47;;;;;;;10.82;6.57;;;;;;;26.14;68.16;100264.44;5085009;28;20127;-63
2023/08/26 10:48:14;;;;;;;13.73;7.63;;;;;;;25.83;69.48;100254.13;5071388;28;20051;-65
2023/08/26 10:50:44;;;;;;;11.05;7.95;;;;;;;25.68;69.74;100252.34;5092115;28;20079;-64
2023/08/26 10:53:19;;;;;;;11.20;7.35;;;;;;;25.86;66.36;100241.06;5067571;28;20051;-64
2023/08/26 10:55:51;;;;;;;9.15;6.60;;;;;;;26.21;66.50;100252.66;5074518;28;20539;-64
2023/08/26 10:58:20;;;;;;;9.25;7.05;;;;;;;26.15;64.92;100255.31;5094413;28;20047;-64
2023/08/26 11:00:52;;;;;;;12.77;6.38;;;;;;;26.05;63.97;100230.56;5097039;28;20107;-64
2023/08/26 11:03:22;;;;;;;10.20;7.13;;;;;;;25.97;63.88;100239.66;5091063;28;20147;-64
2023/08/26 11:06:08;;;;;;;11.18;6.93;;;;;;;25.66;65.13;100234.69;5088638;28;20392;-63
2023/08/26 11:08:38;;;;;;;;;;;;;;;26.19;65.02;100243.91;5065413;28;20131;-63
2023/08/26 11:11:15;;;;;;;10.32;6.13;;;;;;;26.41;62.58;100235.69;5098669;28;20399;-66
2023/08/26 11:13:42;;;;;;;7.90;5.55;;;;;;;26.75;61.88;100224.78;5089445;28;20091;-64
2023/08/26 11:16:09;;;;;;;10.40;5.28;;;;;;;27.00;60.25;100230.41;5088444;28;20112;-65
2023/08/26 11:18:37;;;;;;;12.02;5.75;;;;;;;27.33;57.85;100228.78;5081979;28;20083;-65
2023/08/26 11:21:04;;;;;;;8.63;5.47;;;;;;;27.41;56.94;100220.44;5073712;28;20590;-62
2023/08/26 11:23:32;;;;;;;10.48;5.63;;;;;;;27.69;55.83;100229.16;5091379;28;20113;-64
2023/08/26 11:26:00;;;;;;;15.00;7.53;;;;;;;28.02;55.45;100228.25;5077072;28;20079;-63